sensor_id;sensor_type;location;lat;lon;timestamp;temperature;humidity
40758;DHT22;26462;47.384;19.218;2023-02-18T00:01:32;8.40;99.90
40758;DHT22;26462;47.384;19.218;2023-02-18T00:04:00;8.50;99.90
40758;DHT22;26462;47.384;19.218;2023-02-18T00:06:33;8.60;99.90
40758;DHT22;26462;47.384;19.218;2023-02-18T00:09:02;8.80;99.90
40758;DHT22;26462;47.384;19.218;2023-02-18T00:11:35;9.00;99.90
40758;DHT22;26462;47.384;19.218;2023-02-18T00:14:04;9.10;99.90
40758;DHT22;26462;47.384;19.218;2023-02-18T00:16:32;9.20;99.90
40758;DHT22;26462;47.384;19.218;2023-02-18T00:19:03;9.20;99.90
40758;DHT22;26462;47.384;19.218;2023-02-18T00:21:32;9.20;99.90
40758;DHT22;26462;47.384;19.218;2023-02-18T00:24:00;8.40;99.90
40758;DHT22;26462;47.384;19.218;2023-02-18T00:26:27;9.20;99.90
40758;DHT22;26462;47.384;19.218;2023-02-18T00:28:55;9.40;99.90
40758;DHT22;26462;47.384;19.218;2023-02-18T00:31:28;9.20;99.90
40758;DHT22;26462;47.384;19.218;2023-02-18T00:33:59;9.40;99.90
40758;DHT22;26462;47.384;19.218;2023-02-18T00:36:27;9.50;99.90
40758;DHT22;26462;47.384;19.218;2023-02-18T00:38:57;9.70;99.90
40758;DHT22;26462;47.384;19.218;2023-02-18T00:41:26;9.50;99.90
40758;DHT22;26462;47.384;19.218;2023-02-18T00:43:54;9.70;99.90
40758;DHT22;26462;47.384;19.218;2023-02-18T00:46:23;9.80;99.90
40758;DHT22;26462;47.384;19.218;2023-02-18T00:48:52;9.90;99.90
40758;DHT22;26462;47.384;19.218;2023-02-18T00:51:20;10.50;99.90
40758;DHT22;26462;47.384;19.218;2023-02-18T00:53:48;10.40;99.90
40758;DHT22;26462;47.384;19.218;2023-02-18T00:56:16;10.40;99.90
40758;DHT22;26462;47.384;19.218;2023-02-18T00:58:43;11.30;99.90
40758;DHT22;26462;47.384;19.218;2023-02-18T01:01:10;10.80;99.90
40758;DHT22;26462;47.384;19.218;2023-02-18T01:03:40;10.70;99.90
40758;DHT22;26462;47.384;19.218;2023-02-18T01:06:09;10.80;99.90
40758;DHT22;26462;47.384;19.218;2023-02-18T01:08:38;10.90;99.90
40758;DHT22;26462;47.384;19.218;2023-02-18T01:11:07;10.10;99.90
40758;DHT22;26462;47.384;19.218;2023-02-18T01:13:35;10.90;99.90
40758;DHT22;26462;47.384;19.218;2023-02-18T01:16:05;11.00;99.90
40758;DHT22;26462;47.384;19.218;2023-02-18T01:18:34;11.00;99.90
40758;DHT22;26462;47.384;19.218;2023-02-18T01:21:04;11.10;99.90
40758;DHT22;26462;47.384;19.218;2023-02-18T01:23:40;11.30;99.90
40758;DHT22;26462;47.384;19.218;2023-02-18T01:26:08;10.40;99.90
40758;DHT22;26462;47.384;19.218;2023-02-18T01:28:37;11.30;99.90
40758;DHT22;26462;47.384;19.218;2023-02-18T01:31:07;11.20;99.90
40758;DHT22;26462;47.384;19.218;2023-02-18T01:33:36;11.20;99.90
40758;DHT22;26462;47.384;19.218;2023-02-18T01:36:09;11.40;99.90
40758;DHT22;26462;47.384;19.218;2023-02-18T01:38:38;11.40;99.90
40758;DHT22;26462;47.384;19.218;2023-02-18T01:41:05;11.30;99.90
40758;DHT22;26462;47.384;19.218;2023-02-18T01:43:33;11.20;99.90
40758;DHT22;26462;47.384;19.218;2023-02-18T01:48:40;11.60;99.90
40758;DHT22;26462;47.384;19.218;2023-02-18T01:51:19;11.50;99.90
40758;DHT22;26462;47.384;19.218;2023-02-18T01:53:58;11.60;99.90
40758;DHT22;26462;47.384;19.218;2023-02-18T01:56:50;11.40;99.90
40758;DHT22;26462;47.384;19.218;2023-02-18T01:59:36;11.70;99.90
40758;DHT22;26462;47.384;19.218;2023-02-18T02:02:06;11.60;99.90
40758;DHT22;26462;47.384;19.218;2023-02-18T02:04:34;11.60;99.90
40758;DHT22;26462;47.384;19.218;2023-02-18T02:07:02;11.40;99.90
40758;DHT22;26462;47.384;19.218;2023-02-18T02:09:30;11.50;99.90
40758;DHT22;26462;47.384;19.218;2023-02-18T02:27:20;11.90;99.50
40758;DHT22;26462;47.384;19.218;2023-02-18T02:30:20;11.90;99.70
40758;DHT22;26462;47.384;19.218;2023-02-18T02:40:56;10.80;99.90
40758;DHT22;26462;47.384;19.218;2023-02-18T02:46:20;11.50;99.90
40758;DHT22;26462;47.384;19.218;2023-02-18T02:49:02;11.40;99.90
40758;DHT22;26462;47.384;19.218;2023-02-18T02:51:39;11.50;99.90
40758;DHT22;26462;47.384;19.218;2023-02-18T02:56:40;12.00;99.20
40758;DHT22;26462;47.384;19.218;2023-02-18T02:59:20;12.50;97.50
40758;DHT22;26462;47.384;19.218;2023-02-18T03:04:50;12.90;95.70
40758;DHT22;26462;47.384;19.218;2023-02-18T03:10:48;13.20;94.30
40758;DHT22;26462;47.384;19.218;2023-02-18T03:16:23;13.30;93.40
40758;DHT22;26462;47.384;19.218;2023-02-18T03:19:23;13.40;93.30
40758;DHT22;26462;47.384;19.218;2023-02-18T03:24:33;13.20;93.50
40758;DHT22;26462;47.384;19.218;2023-02-18T03:27:07;13.30;93.20
40758;DHT22;26462;47.384;19.218;2023-02-18T03:29:36;13.40;93.00
40758;DHT22;26462;47.384;19.218;2023-02-18T03:32:07;13.20;93.20
40758;DHT22;26462;47.384;19.218;2023-02-18T03:34:39;13.40;92.80
40758;DHT22;26462;47.384;19.218;2023-02-18T03:37:08;13.30;93.20
40758;DHT22;26462;47.384;19.218;2023-02-18T03:39:38;13.20;93.40
40758;DHT22;26462;47.384;19.218;2023-02-18T03:42:08;13.30;93.20
40758;DHT22;26462;47.384;19.218;2023-02-18T03:44:35;13.30;93.20
40758;DHT22;26462;47.384;19.218;2023-02-18T03:47:03;12.40;92.70
40758;DHT22;26462;47.384;19.218;2023-02-18T03:49:30;13.20;93.50
40758;DHT22;26462;47.384;19.218;2023-02-18T03:51:58;12.90;94.30
40758;DHT22;26462;47.384;19.218;2023-02-18T03:54:26;13.10;93.80
40758;DHT22;26462;47.384;19.218;2023-02-18T03:56:53;13.20;93.60
40758;DHT22;26462;47.384;19.218;2023-02-18T03:59:21;13.20;93.70
40758;DHT22;26462;47.384;19.218;2023-02-18T04:01:48;13.10;93.90
40758;DHT22;26462;47.384;19.218;2023-02-18T04:04:16;13.10;94.10
40758;DHT22;26462;47.384;19.218;2023-02-18T04:06:43;13.00;94.20
40758;DHT22;26462;47.384;19.218;2023-02-18T04:09:11;12.90;94.40
40758;DHT22;26462;47.384;19.218;2023-02-18T04:11:39;13.00;94.40
40758;DHT22;26462;47.384;19.218;2023-02-18T04:14:07;13.00;94.50
40758;DHT22;26462;47.384;19.218;2023-02-18T04:16:35;13.10;94.30
40758;DHT22;26462;47.384;19.218;2023-02-18T04:19:02;13.10;94.20
40758;DHT22;26462;47.384;19.218;2023-02-18T04:21:30;12.90;94.50
40758;DHT22;26462;47.384;19.218;2023-02-18T04:23:58;11.80;94.20
40758;DHT22;26462;47.384;19.218;2023-02-18T04:26:25;13.20;94.70
40758;DHT22;26462;47.384;19.218;2023-02-18T04:28:53;13.00;94.50
40758;DHT22;26462;47.384;19.218;2023-02-18T04:31:20;12.90;94.40
40758;DHT22;26462;47.384;19.218;2023-02-18T04:33:48;12.90;94.70
40758;DHT22;26462;47.384;19.218;2023-02-18T04:36:15;11.80;94.30
40758;DHT22;26462;47.384;19.218;2023-02-18T04:38:42;12.90;94.50
40758;DHT22;26462;47.384;19.218;2023-02-18T04:41:09;13.10;94.30
40758;DHT22;26462;47.384;19.218;2023-02-18T04:43:38;13.10;94.30
40758;DHT22;26462;47.384;19.218;2023-02-18T04:46:06;14.40;94.90
40758;DHT22;26462;47.384;19.218;2023-02-18T04:48:34;13.00;94.40
40758;DHT22;26462;47.384;19.218;2023-02-18T04:51:02;13.00;94.70
40758;DHT22;26462;47.384;19.218;2023-02-18T04:53:29;12.90;94.50
40758;DHT22;26462;47.384;19.218;2023-02-18T04:55:57;12.80;94.80
40758;DHT22;26462;47.384;19.218;2023-02-18T04:58:25;12.80;94.80
40758;DHT22;26462;47.384;19.218;2023-02-18T05:00:52;12.80;94.90
40758;DHT22;26462;47.384;19.218;2023-02-18T05:03:21;12.80;95.10
40758;DHT22;26462;47.384;19.218;2023-02-18T05:05:48;12.80;95.30
40758;DHT22;26462;47.384;19.218;2023-02-18T05:08:15;12.70;95.70
40758;DHT22;26462;47.384;19.218;2023-02-18T05:10:42;12.70;96.60
40758;DHT22;26462;47.384;19.218;2023-02-18T05:13:10;12.70;97.00
40758;DHT22;26462;47.384;19.218;2023-02-18T05:15:37;12.60;97.10
40758;DHT22;26462;47.384;19.218;2023-02-18T05:18:04;12.40;97.30
40758;DHT22;26462;47.384;19.218;2023-02-18T05:20:32;12.30;97.50
40758;DHT22;26462;47.384;19.218;2023-02-18T05:22:59;12.30;97.60
40758;DHT22;26462;47.384;19.218;2023-02-18T05:25:27;12.40;97.30
40758;DHT22;26462;47.384;19.218;2023-02-18T05:27:54;12.30;97.60
40758;DHT22;26462;47.384;19.218;2023-02-18T05:30:21;12.40;97.40
40758;DHT22;26462;47.384;19.218;2023-02-18T05:32:48;12.50;97.20
40758;DHT22;26462;47.384;19.218;2023-02-18T05:35:17;12.50;97.10
40758;DHT22;26462;47.384;19.218;2023-02-18T05:37:44;12.40;97.30
40758;DHT22;26462;47.384;19.218;2023-02-18T05:40:11;12.20;97.70
40758;DHT22;26462;47.384;19.218;2023-02-18T05:42:38;12.40;97.40
40758;DHT22;26462;47.384;19.218;2023-02-18T05:45:06;11.90;97.90
40758;DHT22;26462;47.384;19.218;2023-02-18T05:47:33;12.20;98.10
40758;DHT22;26462;47.384;19.218;2023-02-18T05:50:00;12.20;98.00
40758;DHT22;26462;47.384;19.218;2023-02-18T05:52:27;12.20;98.10
40758;DHT22;26462;47.384;19.218;2023-02-18T05:54:54;12.20;98.10
40758;DHT22;26462;47.384;19.218;2023-02-18T05:57:22;12.10;98.30
40758;DHT22;26462;47.384;19.218;2023-02-18T05:59:49;12.00;98.80
40758;DHT22;26462;47.384;19.218;2023-02-18T06:02:16;12.00;99.50
40758;DHT22;26462;47.384;19.218;2023-02-18T06:04:44;12.00;99.30
40758;DHT22;26462;47.384;19.218;2023-02-18T06:07:11;11.80;99.70
40758;DHT22;26462;47.384;19.218;2023-02-18T06:09:38;11.80;99.90
40758;DHT22;26462;47.384;19.218;2023-02-18T06:12:05;12.00;99.90
40758;DHT22;26462;47.384;19.218;2023-02-18T06:14:33;12.10;99.50
40758;DHT22;26462;47.384;19.218;2023-02-18T06:17:00;12.20;99.10
40758;DHT22;26462;47.384;19.218;2023-02-18T06:19:27;12.10;99.10
40758;DHT22;26462;47.384;19.218;2023-02-18T06:21:54;12.10;99.80
40758;DHT22;26462;47.384;19.218;2023-02-18T06:24:22;12.10;99.90
40758;DHT22;26462;47.384;19.218;2023-02-18T06:26:49;11.90;99.90
40758;DHT22;26462;47.384;19.218;2023-02-18T06:29:16;11.80;99.90
40758;DHT22;26462;47.384;19.218;2023-02-18T06:31:43;11.70;99.90
40758;DHT22;26462;47.384;19.218;2023-02-18T06:34:11;11.70;99.90
40758;DHT22;26462;47.384;19.218;2023-02-18T06:36:38;11.60;99.90
40758;DHT22;26462;47.384;19.218;2023-02-18T06:39:06;11.70;99.90
40758;DHT22;26462;47.384;19.218;2023-02-18T06:41:33;11.80;99.90
40758;DHT22;26462;47.384;19.218;2023-02-18T06:44:00;11.80;99.90
40758;DHT22;26462;47.384;19.218;2023-02-18T06:46:29;11.80;99.90
40758;DHT22;26462;47.384;19.218;2023-02-18T06:48:56;11.70;99.90
40758;DHT22;26462;47.384;19.218;2023-02-18T06:51:23;11.60;99.90
40758;DHT22;26462;47.384;19.218;2023-02-18T06:53:50;11.50;99.90
40758;DHT22;26462;47.384;19.218;2023-02-18T06:56:17;11.50;99.90
40758;DHT22;26462;47.384;19.218;2023-02-18T06:58:45;11.40;99.90
40758;DHT22;26462;47.384;19.218;2023-02-18T07:01:12;11.40;99.90
40758;DHT22;26462;47.384;19.218;2023-02-18T07:03:39;11.40;99.90
40758;DHT22;26462;47.384;19.218;2023-02-18T07:06:06;11.40;99.90
40758;DHT22;26462;47.384;19.218;2023-02-18T07:08:34;11.50;99.90
40758;DHT22;26462;47.384;19.218;2023-02-18T07:11:03;11.40;99.90
40758;DHT22;26462;47.384;19.218;2023-02-18T07:13:30;11.50;99.90
40758;DHT22;26462;47.384;19.218;2023-02-18T07:15:57;11.40;99.90
40758;DHT22;26462;47.384;19.218;2023-02-18T07:18:24;11.40;99.90
40758;DHT22;26462;47.384;19.218;2023-02-18T07:20:52;11.40;99.90
40758;DHT22;26462;47.384;19.218;2023-02-18T07:23:19;11.40;99.90
40758;DHT22;26462;47.384;19.218;2023-02-18T07:25:46;11.40;99.90
40758;DHT22;26462;47.384;19.218;2023-02-18T07:28:13;11.40;99.90
40758;DHT22;26462;47.384;19.218;2023-02-18T07:30:40;11.40;99.90
40758;DHT22;26462;47.384;19.218;2023-02-18T07:33:07;11.40;99.90
40758;DHT22;26462;47.384;19.218;2023-02-18T07:35:34;11.50;99.90
40758;DHT22;26462;47.384;19.218;2023-02-18T07:38:03;11.50;99.90
40758;DHT22;26462;47.384;19.218;2023-02-18T07:40:30;11.50;99.90
40758;DHT22;26462;47.384;19.218;2023-02-18T07:42:57;11.60;99.90
40758;DHT22;26462;47.384;19.218;2023-02-18T07:45:24;11.70;99.90
40758;DHT22;26462;47.384;19.218;2023-02-18T07:47:52;11.80;99.90
40758;DHT22;26462;47.384;19.218;2023-02-18T07:50:19;11.80;99.90
40758;DHT22;26462;47.384;19.218;2023-02-18T07:52:46;11.80;99.90
40758;DHT22;26462;47.384;19.218;2023-02-18T07:55:13;11.80;99.90
40758;DHT22;26462;47.384;19.218;2023-02-18T07:57:40;11.90;99.90
40758;DHT22;26462;47.384;19.218;2023-02-18T08:00:23;11.90;99.90
40758;DHT22;26462;47.384;19.218;2023-02-18T08:02:50;11.90;99.90
40758;DHT22;26462;47.384;19.218;2023-02-18T08:05:17;11.90;99.90
40758;DHT22;26462;47.384;19.218;2023-02-18T08:07:44;11.90;99.90
40758;DHT22;26462;47.384;19.218;2023-02-18T08:10:11;12.00;99.90
40758;DHT22;26462;47.384;19.218;2023-02-18T08:12:38;12.10;99.90
40758;DHT22;26462;47.384;19.218;2023-02-18T08:15:06;12.10;99.90
40758;DHT22;26462;47.384;19.218;2023-02-18T08:17:33;12.20;99.90
40758;DHT22;26462;47.384;19.218;2023-02-18T08:20:00;12.20;99.90
40758;DHT22;26462;47.384;19.218;2023-02-18T08:22:27;12.30;99.90
40758;DHT22;26462;47.384;19.218;2023-02-18T08:24:54;12.50;99.90
40758;DHT22;26462;47.384;19.218;2023-02-18T08:27:24;12.60;99.90
40758;DHT22;26462;47.384;19.218;2023-02-18T08:29:52;12.70;99.90
40758;DHT22;26462;47.384;19.218;2023-02-18T08:32:19;12.90;99.90
40758;DHT22;26462;47.384;19.218;2023-02-18T08:34:46;12.90;99.90
40758;DHT22;26462;47.384;19.218;2023-02-18T08:37:13;13.00;99.90
40758;DHT22;26462;47.384;19.218;2023-02-18T08:39:40;13.10;99.90
40758;DHT22;26462;47.384;19.218;2023-02-18T08:42:07;13.10;99.80
40758;DHT22;26462;47.384;19.218;2023-02-18T08:44:34;13.00;99.90
40758;DHT22;26462;47.384;19.218;2023-02-18T08:47:02;13.00;99.90
40758;DHT22;26462;47.384;19.218;2023-02-18T08:49:49;13.00;99.50
40758;DHT22;26462;47.384;19.218;2023-02-18T08:52:16;13.10;99.10
40758;DHT22;26462;47.384;19.218;2023-02-18T08:54:43;13.10;98.80
40758;DHT22;26462;47.384;19.218;2023-02-18T08:57:10;13.10;98.50
40758;DHT22;26462;47.384;19.218;2023-02-18T08:59:37;13.30;97.70
40758;DHT22;26462;47.384;19.218;2023-02-18T09:02:05;13.40;97.20
40758;DHT22;26462;47.384;19.218;2023-02-18T09:04:32;13.50;96.70
40758;DHT22;26462;47.384;19.218;2023-02-18T09:07:00;13.50;96.60
40758;DHT22;26462;47.384;19.218;2023-02-18T09:09:27;13.60;96.60
40758;DHT22;26462;47.384;19.218;2023-02-18T09:11:54;13.80;96.10
40758;DHT22;26462;47.384;19.218;2023-02-18T09:14:21;13.80;95.70
40758;DHT22;26462;47.384;19.218;2023-02-18T09:16:48;13.90;95.50
40758;DHT22;26462;47.384;19.218;2023-02-18T09:19:17;14.00;94.70
40758;DHT22;26462;47.384;19.218;2023-02-18T09:21:45;13.80;94.80
40758;DHT22;26462;47.384;19.218;2023-02-18T09:24:12;13.60;95.20
40758;DHT22;26462;47.384;19.218;2023-02-18T09:26:39;13.60;95.50
40758;DHT22;26462;47.384;19.218;2023-02-18T09:29:06;13.50;95.90
40758;DHT22;26462;47.384;19.218;2023-02-18T09:31:33;13.40;96.30
40758;DHT22;26462;47.384;19.218;2023-02-18T09:34:01;13.40;95.80
40758;DHT22;26462;47.384;19.218;2023-02-18T09:36:29;13.40;95.50
40758;DHT22;26462;47.384;19.218;2023-02-18T09:38:56;13.40;95.30
40758;DHT22;26462;47.384;19.218;2023-02-18T09:46:51;13.70;94.60
40758;DHT22;26462;47.384;19.218;2023-02-18T09:49:24;13.80;94.70
40758;DHT22;26462;47.384;19.218;2023-02-18T09:51:53;13.90;95.00
40758;DHT22;26462;47.384;19.218;2023-02-18T09:54:21;13.80;94.90
40758;DHT22;26462;47.384;19.218;2023-02-18T09:56:49;13.90;94.80
40758;DHT22;26462;47.384;19.218;2023-02-18T09:59:19;13.90;94.70
40758;DHT22;26462;47.384;19.218;2023-02-18T10:01:50;13.90;94.50
40758;DHT22;26462;47.384;19.218;2023-02-18T10:04:42;13.90;94.60
40758;DHT22;26462;47.384;19.218;2023-02-18T10:07:18;13.80;94.40
40758;DHT22;26462;47.384;19.218;2023-02-18T10:09:48;13.90;93.90
40758;DHT22;26462;47.384;19.218;2023-02-18T10:12:22;14.00;94.20
40758;DHT22;26462;47.384;19.218;2023-02-18T10:14:57;14.20;94.00
40758;DHT22;26462;47.384;19.218;2023-02-18T10:17:30;14.30;93.50
40758;DHT22;26462;47.384;19.218;2023-02-18T10:19:59;14.40;93.00
40758;DHT22;26462;47.384;19.218;2023-02-18T10:22:29;14.40;92.90
40758;DHT22;26462;47.384;19.218;2023-02-18T10:24:59;14.40;93.10
40758;DHT22;26462;47.384;19.218;2023-02-18T10:27:30;14.40;92.80
40758;DHT22;26462;47.384;19.218;2023-02-18T10:32:46;14.10;93.20
40758;DHT22;26462;47.384;19.218;2023-02-18T10:35:33;14.10;93.40
40758;DHT22;26462;47.384;19.218;2023-02-18T10:38:22;14.20;92.80
40758;DHT22;26462;47.384;19.218;2023-02-18T10:46:30;14.40;92.30
40758;DHT22;26462;47.384;19.218;2023-02-18T10:51:46;14.40;92.00
40758;DHT22;26462;47.384;19.218;2023-02-18T10:54:14;14.40;91.90
40758;DHT22;26462;47.384;19.218;2023-02-18T10:56:50;14.30;92.30
40758;DHT22;26462;47.384;19.218;2023-02-18T10:59:21;14.20;92.40
40758;DHT22;26462;47.384;19.218;2023-02-18T11:02:14;14.20;92.10
40758;DHT22;26462;47.384;19.218;2023-02-18T11:04:44;14.20;92.40
40758;DHT22;26462;47.384;19.218;2023-02-18T11:07:15;14.20;92.40
40758;DHT22;26462;47.384;19.218;2023-02-18T11:12:19;14.10;93.20
40758;DHT22;26462;47.384;19.218;2023-02-18T11:15:02;14.10;93.30
40758;DHT22;26462;47.384;19.218;2023-02-18T11:17:32;14.00;93.80
40758;DHT22;26462;47.384;19.218;2023-02-18T11:20:01;14.00;93.60
40758;DHT22;26462;47.384;19.218;2023-02-18T11:22:35;14.00;93.90
40758;DHT22;26462;47.384;19.218;2023-02-18T11:25:23;14.00;93.90
40758;DHT22;26462;47.384;19.218;2023-02-18T11:27:59;13.90;94.90
40758;DHT22;26462;47.384;19.218;2023-02-18T11:30:32;13.80;95.40
40758;DHT22;26462;47.384;19.218;2023-02-18T11:33:22;13.70;95.80
40758;DHT22;26462;47.384;19.218;2023-02-18T11:35:54;13.80;95.70
40758;DHT22;26462;47.384;19.218;2023-02-18T11:38:26;13.80;96.00
40758;DHT22;26462;47.384;19.218;2023-02-18T11:40:56;13.90;95.90
40758;DHT22;26462;47.384;19.218;2023-02-18T11:43:28;13.90;96.10
40758;DHT22;26462;47.384;19.218;2023-02-18T11:48:35;13.80;96.20
40758;DHT22;26462;47.384;19.218;2023-02-18T11:51:03;13.80;96.30
40758;DHT22;26462;47.384;19.218;2023-02-18T11:53:35;13.90;96.50
40758;DHT22;26462;47.384;19.218;2023-02-18T11:56:05;14.10;95.80
40758;DHT22;26462;47.384;19.218;2023-02-18T11:58:40;14.30;95.30
40758;DHT22;26462;47.384;19.218;2023-02-18T12:01:20;14.40;95.30
40758;DHT22;26462;47.384;19.218;2023-02-18T12:06:27;15.10;93.80
40758;DHT22;26462;47.384;19.218;2023-02-18T12:11:35;15.40;93.00
40758;DHT22;26462;47.384;19.218;2023-02-18T12:14:17;15.30;92.60
40758;DHT22;26462;47.384;19.218;2023-02-18T12:47:13;15.30;89.20
40758;DHT22;26462;47.384;19.218;2023-02-18T13:01:07;15.80;85.30
40758;DHT22;26462;47.384;19.218;2023-02-18T13:09:25;15.50;85.80
40758;DHT22;26462;47.384;19.218;2023-02-18T13:12:20;15.50;86.30
40758;DHT22;26462;47.384;19.218;2023-02-18T13:14:51;15.50;86.00
40758;DHT22;26462;47.384;19.218;2023-02-18T13:17:25;15.50;86.30
40758;DHT22;26462;47.384;19.218;2023-02-18T13:20:05;15.40;86.70
40758;DHT22;26462;47.384;19.218;2023-02-18T13:22:35;15.50;87.00
40758;DHT22;26462;47.384;19.218;2023-02-18T13:25:03;15.60;87.10
40758;DHT22;26462;47.384;19.218;2023-02-18T13:30:30;16.00;85.00
40758;DHT22;26462;47.384;19.218;2023-02-18T13:36:02;16.10;85.30
40758;DHT22;26462;47.384;19.218;2023-02-18T13:41:25;15.90;86.20
40758;DHT22;26462;47.384;19.218;2023-02-18T13:43:53;15.80;85.50
40758;DHT22;26462;47.384;19.218;2023-02-18T13:46:24;15.70;85.50
40758;DHT22;26462;47.384;19.218;2023-02-18T13:51:29;15.50;86.50
40758;DHT22;26462;47.384;19.218;2023-02-18T13:54:25;15.60;85.80
40758;DHT22;26462;47.384;19.218;2023-02-18T14:04:51;15.30;88.70
40758;DHT22;26462;47.384;19.218;2023-02-18T14:07:28;15.00;89.20
40758;DHT22;26462;47.384;19.218;2023-02-18T14:20:44;14.60;90.80
40758;DHT22;26462;47.384;19.218;2023-02-18T14:25:56;14.60;91.20
40758;DHT22;26462;47.384;19.218;2023-02-18T14:31:27;14.60;91.30
40758;DHT22;26462;47.384;19.218;2023-02-18T14:34:26;14.60;91.30
40758;DHT22;26462;47.384;19.218;2023-02-18T14:37:09;14.60;91.00
40758;DHT22;26462;47.384;19.218;2023-02-18T14:50:54;14.30;89.60
40758;DHT22;26462;47.384;19.218;2023-02-18T14:53:26;14.20;89.50
40758;DHT22;26462;47.384;19.218;2023-02-18T14:56:02;14.20;89.30
40758;DHT22;26462;47.384;19.218;2023-02-18T14:58:38;14.10;89.60
40758;DHT22;26462;47.384;19.218;2023-02-18T15:01:28;14.00;89.40
40758;DHT22;26462;47.384;19.218;2023-02-18T15:03:57;13.90;89.80
40758;DHT22;26462;47.384;19.218;2023-02-18T15:06:34;13.80;90.20
40758;DHT22;26462;47.384;19.218;2023-02-18T15:09:18;13.70;90.30
40758;DHT22;26462;47.384;19.218;2023-02-18T15:11:59;13.50;90.00
40758;DHT22;26462;47.384;19.218;2023-02-18T15:14:41;13.50;90.20
40758;DHT22;26462;47.384;19.218;2023-02-18T15:17:24;13.40;90.50
40758;DHT22;26462;47.384;19.218;2023-02-18T15:19:58;13.30;90.60
40758;DHT22;26462;47.384;19.218;2023-02-18T15:22:34;13.20;91.00
40758;DHT22;26462;47.384;19.218;2023-02-18T15:25:02;13.20;91.20
40758;DHT22;26462;47.384;19.218;2023-02-18T15:27:38;13.10;91.30
40758;DHT22;26462;47.384;19.218;2023-02-18T15:30:26;13.00;91.40
40758;DHT22;26462;47.384;19.218;2023-02-18T15:32:57;12.90;91.40
40758;DHT22;26462;47.384;19.218;2023-02-18T15:35:30;12.90;91.60
40758;DHT22;26462;47.384;19.218;2023-02-18T15:38:00;12.80;91.70
40758;DHT22;26462;47.384;19.218;2023-02-18T15:40:33;12.70;92.10
40758;DHT22;26462;47.384;19.218;2023-02-18T15:43:03;12.60;92.50
40758;DHT22;26462;47.384;19.218;2023-02-18T15:45:35;12.50;92.90
40758;DHT22;26462;47.384;19.218;2023-02-18T15:48:24;12.50;93.40
40758;DHT22;26462;47.384;19.218;2023-02-18T15:50:57;12.40;93.70
40758;DHT22;26462;47.384;19.218;2023-02-18T15:53:41;12.30;94.00
40758;DHT22;26462;47.384;19.218;2023-02-18T15:56:17;12.20;93.70
40758;DHT22;26462;47.384;19.218;2023-02-18T15:58:47;12.10;93.80
40758;DHT22;26462;47.384;19.218;2023-02-18T16:01:27;12.00;93.30
40758;DHT22;26462;47.384;19.218;2023-02-18T16:03:55;12.00;93.00
40758;DHT22;26462;47.384;19.218;2023-02-18T16:09:12;11.80;93.20
40758;DHT22;26462;47.384;19.218;2023-02-18T16:11:48;11.80;93.80
40758;DHT22;26462;47.384;19.218;2023-02-18T16:27:53;11.30;94.90
40758;DHT22;26462;47.384;19.218;2023-02-18T16:30:23;11.30;95.20
40758;DHT22;26462;47.384;19.218;2023-02-18T16:32:52;11.20;95.30
40758;DHT22;26462;47.384;19.218;2023-02-18T16:35:22;11.20;95.50
40758;DHT22;26462;47.384;19.218;2023-02-18T16:37:52;11.10;95.70
40758;DHT22;26462;47.384;19.218;2023-02-18T16:40:53;11.10;96.00
40758;DHT22;26462;47.384;19.218;2023-02-18T16:43:23;11.00;96.20
40758;DHT22;26462;47.384;19.218;2023-02-18T16:45:56;10.90;96.40
40758;DHT22;26462;47.384;19.218;2023-02-18T16:48:45;10.80;96.70
40758;DHT22;26462;47.384;19.218;2023-02-18T16:51:16;10.80;96.90
40758;DHT22;26462;47.384;19.218;2023-02-18T16:53:44;10.80;97.10
40758;DHT22;26462;47.384;19.218;2023-02-18T16:56:18;10.80;97.30
40758;DHT22;26462;47.384;19.218;2023-02-18T16:58:45;10.70;97.50
40758;DHT22;26462;47.384;19.218;2023-02-18T17:01:26;10.60;97.70
40758;DHT22;26462;47.384;19.218;2023-02-18T17:03:59;10.60;98.10
40758;DHT22;26462;47.384;19.218;2023-02-18T17:06:28;10.50;98.10
40758;DHT22;26462;47.384;19.218;2023-02-18T17:08:57;10.50;98.60
40758;DHT22;26462;47.384;19.218;2023-02-18T17:11:30;10.50;98.80
40758;DHT22;26462;47.384;19.218;2023-02-18T17:13:59;10.40;99.10
40758;DHT22;26462;47.384;19.218;2023-02-18T17:16:28;10.40;99.10
40758;DHT22;26462;47.384;19.218;2023-02-18T17:18:55;10.30;99.40
40758;DHT22;26462;47.384;19.218;2023-02-18T17:21:24;10.30;99.70
40758;DHT22;26462;47.384;19.218;2023-02-18T17:23:52;10.20;99.80
40758;DHT22;26462;47.384;19.218;2023-02-18T17:26:27;10.20;99.90
40758;DHT22;26462;47.384;19.218;2023-02-18T17:28:57;10.20;99.90
40758;DHT22;26462;47.384;19.218;2023-02-18T17:31:28;10.20;99.90
40758;DHT22;26462;47.384;19.218;2023-02-18T17:33:59;10.10;99.90
40758;DHT22;26462;47.384;19.218;2023-02-18T17:36:28;10.10;99.90
40758;DHT22;26462;47.384;19.218;2023-02-18T17:38:57;10.00;99.90
40758;DHT22;26462;47.384;19.218;2023-02-18T17:41:28;10.00;99.90
40758;DHT22;26462;47.384;19.218;2023-02-18T17:43:56;10.00;99.90
40758;DHT22;26462;47.384;19.218;2023-02-18T17:46:24;9.90;99.90
40758;DHT22;26462;47.384;19.218;2023-02-18T17:48:53;9.80;99.90
40758;DHT22;26462;47.384;19.218;2023-02-18T17:51:26;9.80;99.90
40758;DHT22;26462;47.384;19.218;2023-02-18T17:53:55;9.80;99.90
40758;DHT22;26462;47.384;19.218;2023-02-18T17:56:23;9.80;99.90
40758;DHT22;26462;47.384;19.218;2023-02-18T17:58:51;9.70;99.90
40758;DHT22;26462;47.384;19.218;2023-02-18T18:01:20;9.70;99.90
40758;DHT22;26462;47.384;19.218;2023-02-18T18:03:50;9.70;99.90
40758;DHT22;26462;47.384;19.218;2023-02-18T18:06:19;9.70;99.90
40758;DHT22;26462;47.384;19.218;2023-02-18T18:08:48;9.70;99.90
40758;DHT22;26462;47.384;19.218;2023-02-18T18:11:21;9.60;99.90
40758;DHT22;26462;47.384;19.218;2023-02-18T18:13:49;9.60;99.90
40758;DHT22;26462;47.384;19.218;2023-02-18T18:16:19;9.60;99.90
40758;DHT22;26462;47.384;19.218;2023-02-18T18:18:48;9.50;99.90
40758;DHT22;26462;47.384;19.218;2023-02-18T18:21:31;9.50;99.90
40758;DHT22;26462;47.384;19.218;2023-02-18T18:24:01;9.50;99.90
40758;DHT22;26462;47.384;19.218;2023-02-18T18:26:29;9.50;99.90
40758;DHT22;26462;47.384;19.218;2023-02-18T18:28:58;9.50;99.90
40758;DHT22;26462;47.384;19.218;2023-02-18T18:31:27;9.50;99.90
40758;DHT22;26462;47.384;19.218;2023-02-18T18:33:55;9.40;99.90
40758;DHT22;26462;47.384;19.218;2023-02-18T18:36:23;9.40;99.90
40758;DHT22;26462;47.384;19.218;2023-02-18T18:38:51;9.40;99.90
40758;DHT22;26462;47.384;19.218;2023-02-18T18:41:21;9.40;99.90